Flight Number: EUR2429 Duration: 6:00
Departure: Casablanca Int'l (GMMN) at 06:00 Distance: 2562 Nm
Arrival: Jeddah King Abdul Aziz (OEJN) at 12:00 Equipment: B757-200

Weather Information
Nouasseur, Morocco (GMMN) 33-22N 007-35W 206M Jan 23, 2018 - 04:30 AM EST / 2018.01.23 0930 UTC
Wind: from the ENE (060 degrees) at 6 MPH (5 KT) (direction variable):0
Visibility: 4 mile(s):0
Sky conditions: mostly cloudy Temperature: 51 F (11 C) Dew Point: 51 F (11 C) Relative Humidity: 100% Pressure (altimeter): 30.36 in. Hg (1028 hPa)
ob: GMMN 230930Z 06005KT 020V090 8000 BKN007 11/11 Q1028 NOSIG cycle: 9
Sunrise: 07:34 Sunset: 17:50 (UTC)

Jeddah King Abdul Aziz International Airport , Saudi Arabia (OEJN) 21-42N 039-11E 17M Jan 23, 2018 - 04:00 AM EST / 2018.01.23 0900 UTC
Wind: from the N (360 degrees) at 12 MPH (10 KT):0
Visibility: greater than 7 mile(s):0 Temperature: 82 F (28 C) Dew Point: 53 F (12 C) Relative Humidity: 37% Pressure (altimeter): 29.85 in. Hg (1011 hPa)
ob: OEJN 230900Z 36010KT CAVOK 28/12 Q1011 NOSIG cycle: 9
Sunrise: 04:06 Sunset: 15:04 (UTC)

TAF:2018/01/23 06:24 TAF OEJN 230500Z 2306/2412 34008G18KT 9999 SCT040 BKN100 BECMG 2318/2320 02010KT 8000 FEW040

This route has never been flown.

Route map